Time;durP1;ratioP1;P1;durP2;ratioP2;P2;SDS_P1;SDS_P2;PMS_P1;PMS_P2;Temp;Humidity;BMP_temperature;BMP_pressure;BME280_temperature;BME280_humidity;BME280_pressure;Samples;Min_cycle;Max_cycle;Signal;HPM_P1;HPM_P2
2024/04/16 00:00:21;;;;;;;10.20;4.20;;;;;;;;;;772565;180;864980;-75
2024/04/16 00:02:47;;;;;;;5.13;3.90;;;;;;;;;;779363;180;743271;-74
2024/04/16 00:05:13;;;;;;;7.33;3.80;;;;;;;;;;772657;178;819195;-75
2024/04/16 00:07:39;;;;;;;6.47;4.13;;;;;;;;;;769001;181;712857;-74
2024/04/16 00:10:04;;;;;;;6.57;3.60;;;;;;;;;;772574;178;818398;-75
2024/04/16 00:12:30;;;;;;;5.50;4.00;;;;;;;;;;766814;180;702833;-75
2024/04/16 00:14:56;;;;;;;5.97;3.70;;;;;;;;;;769704;178;712931;-74
2024/04/16 00:17:24;;;;;;;5.97;3.72;;;;;;;;;;772831;177;824724;-75
2024/04/16 00:19:48;;;;;;;4.33;3.30;;;;;;;;;;778989;180;921332;-74
2024/04/16 00:22:14;;;;;;;9.00;3.93;;;;;;;;;;772738;181;892436;-75
2024/04/16 00:24:39;;;;;;;6.07;3.90;;;;;;;;;;775633;178;642238;-75
2024/04/16 00:27:05;;;;;;;5.53;3.93;;;;;;;;;;781268;178;761136;-75
2024/04/16 00:29:31;;;;;;;6.57;4.60;;;;;;;;;;772442;179;830231;-75
2024/04/16 00:31:57;;;;;;;6.23;3.77;;;;;;;;;;776355;176;813590;-74
2024/04/16 00:34:23;;;;;;;4.20;3.30;;;;;;;;;;779608;177;813479;-75
2024/04/16 00:36:49;;;;;;;5.90;3.50;;;;;;;;;;774439;180;919485;-74
2024/04/16 00:39:14;;;;;;;3.87;2.90;;;;;;;;;;774342;180;800757;-75
2024/04/16 00:41:40;;;;;;;4.67;3.20;;;;;;;;;;773335;177;817842;-74
2024/04/16 00:44:06;;;;;;;5.20;3.50;;;;;;;;;;776905;180;734942;-75
2024/04/16 00:46:32;;;;;;;10.23;3.53;;;;;;;;;;774276;177;874535;-75
2024/04/16 00:48:58;;;;;;;7.50;3.50;;;;;;;;;;771427;179;842367;-75
2024/04/16 00:51:24;;;;;;;4.50;3.40;;;;;;;;;;778135;180;691544;-75
2024/04/16 00:53:49;;;;;;;4.73;3.53;;;;;;;;;;774510;178;711900;-75
2024/04/16 00:56:15;;;;;;;5.30;3.63;;;;;;;;;;772125;177;861689;-75
2024/04/16 00:58:41;;;;;;;6.13;3.23;;;;;;;;;;775961;181;811051;-74
2024/04/16 01:01:07;;;;;;;5.90;3.60;;;;;;;;;;771351;180;717243;-74
2024/04/16 01:03:33;;;;;;;7.82;3.33;;;;;;;;;;773694;179;711159;-75
2024/04/16 01:05:59;;;;;;;10.83;3.60;;;;;;;;;;772736;180;813195;-74
2024/04/16 01:08:25;;;;;;;5.93;3.50;;;;;;;;;;774453;177;816625;-74
2024/04/16 01:10:50;;;;;;;5.07;3.80;;;;;;;;;;772274;178;849525;-74
2024/04/16 01:13:16;;;;;;;5.70;3.97;;;;;;;;;;774497;177;814473;-74
2024/04/16 01:15:42;;;;;;;5.90;3.40;;;;;;;;;;769222;180;713071;-75
2024/04/16 01:18:08;;;;;;;8.77;3.90;;;;;;;;;;760828;179;728555;-74
2024/04/16 01:20:34;;;;;;;6.15;3.83;;;;;;;;;;751318;183;945224;-75
2024/04/16 01:23:00;;;;;;;6.00;3.40;;;;;;;;;;759279;183;741490;-75
2024/04/16 01:25:25;;;;;;;4.33;3.30;;;;;;;;;;775168;178;714874;-75
2024/04/16 01:27:51;;;;;;;5.78;3.22;;;;;;;;;;770955;177;769080;-76
2024/04/16 01:30:17;;;;;;;5.07;3.17;;;;;;;;;;774906;179;834415;-76
2024/04/16 01:32:43;;;;;;;5.13;2.90;;;;;;;;;;757269;182;914860;-76
2024/04/16 01:35:10;;;;;;;4.03;3.23;;;;;;;;;;753552;183;916631;-75
2024/04/16 01:37:35;;;;;;;8.40;5.00;;;;;;;;;;759421;183;739456;-76
2024/04/16 01:40:00;;;;;;;6.47;3.10;;;;;;;;;;747755;184;801787;-75
2024/04/16 01:42:26;;;;;;;4.72;3.53;;;;;;;;;;745048;184;829945;-74
2024/04/16 01:44:55;;;;;;;4.65;3.35;;;;;;;;;;756383;183;813753;-75
2024/04/16 01:47:18;;;;;;;5.67;3.90;;;;;;;;;;756540;182;709087;-76
2024/04/16 01:49:44;;;;;;;8.97;3.47;;;;;;;;;;747928;184;766881;-76
2024/04/16 01:52:10;;;;;;;4.60;2.73;;;;;;;;;;755516;180;899384;-75
2024/04/16 01:54:36;;;;;;;4.63;1.60;;;;;;;;;;751263;186;805142;-75
2024/04/16 01:57:02;;;;;;;7.27;2.53;;;;;;;;;;775014;178;937537;-75
2024/04/16 01:59:27;;;;;;;7.90;1.77;;;;;;;;;;772535;179;815376;-74
2024/04/16 02:01:53;;;;;;;5.30;1.40;;;;;;;;;;778699;179;713958;-74
2024/04/16 02:06:58;;;;;;;5.80;1.37;;;;;;;;;;782380;173;872011;-73
2024/04/16 02:09:24;;;;;;;6.40;1.43;;;;;;;;;;761088;180;867992;-68
2024/04/16 02:11:49;;;;;;;6.73;1.20;;;;;;;;;;769220;179;816379;-67
2024/04/16 02:14:15;;;;;;;9.60;1.37;;;;;;;;;;767365;180;753848;-69
2024/04/16 02:16:41;;;;;;;3.27;1.37;;;;;;;;;;767790;180;879976;-68
2024/04/16 02:19:07;;;;;;;2.70;1.10;;;;;;;;;;773282;180;907259;-68
2024/04/16 02:21:33;;;;;;;5.00;1.50;;;;;;;;;;769001;180;764660;-70
2024/04/16 02:23:59;;;;;;;3.70;1.30;;;;;;;;;;775346;180;707279;-67
2024/04/16 02:26:24;;;;;;;16.87;2.40;;;;;;;;;;770197;180;808793;-73
2024/04/16 02:28:50;;;;;;;5.60;1.63;;;;;;;;;;773571;180;814950;-72
2024/04/16 02:31:16;;;;;;;4.67;1.67;;;;;;;;;;762831;180;814107;-73
2024/04/16 02:33:42;;;;;;;5.73;1.17;;;;;;;;;;767650;180;812864;-73
2024/04/16 02:36:08;;;;;;;2.87;1.40;;;;;;;;;;769885;180;802860;-73
2024/04/16 02:38:34;;;;;;;5.33;2.00;;;;;;;;;;766975;179;805015;-73
2024/04/16 02:40:59;;;;;;;2.40;1.07;;;;;;;;;;763994;180;810239;-73
2024/04/16 02:43:25;;;;;;;4.97;1.37;;;;;;;;;;773355;180;815551;-73
2024/04/16 02:45:51;;;;;;;4.20;1.57;;;;;;;;;;773207;180;814755;-72
2024/04/16 02:48:17;;;;;;;8.95;1.50;;;;;;;;;;770390;180;675370;-73
2024/04/16 02:50:43;;;;;;;7.47;1.90;;;;;;;;;;767740;181;757340;-72
2024/04/16 02:53:09;;;;;;;6.40;1.47;;;;;;;;;;769284;180;815385;-73
2024/04/16 02:55:35;;;;;;;4.53;1.37;;;;;;;;;;763110;180;892918;-72
2024/04/16 02:58:01;;;;;;;2.13;0.87;;;;;;;;;;764391;180;815480;-73
2024/04/16 03:00:26;;;;;;;3.60;1.37;;;;;;;;;;762847;183;769556;-72
2024/04/16 03:02:52;;;;;;;2.87;1.23;;;;;;;;;;765326;180;714306;-73
2024/04/16 03:05:18;;;;;;;3.70;1.30;;;;;;;;;;765783;180;916165;-74
2024/04/16 03:07:44;;;;;;;4.00;1.10;;;;;;;;;;773462;180;930026;-71
2024/04/16 03:10:15;;;;;;;6.60;1.27;;;;;;;;;;767377;180;851277;-72
2024/04/16 03:12:36;;;;;;;2.93;1.20;;;;;;;;;;767776;180;785676;-74
2024/04/16 03:15:01;;;;;;;3.33;1.00;;;;;;;;;;772977;180;705860;-73
2024/04/16 03:17:27;;;;;;;2.47;1.20;;;;;;;;;;767572;179;713132;-73
2024/04/16 03:19:53;;;;;;;6.33;1.07;;;;;;;;;;771358;180;713724;-73
2024/04/16 03:22:19;;;;;;;2.73;0.83;;;;;;;;;;773961;180;760681;-73
2024/04/16 03:24:45;;;;;;;2.20;1.00;;;;;;;;;;770603;180;909468;-74
2024/04/16 03:27:11;;;;;;;4.63;1.23;;;;;;;;;;770746;180;837808;-73
2024/04/16 03:29:37;;;;;;;5.10;1.10;;;;;;;;;;773446;179;815366;-74
2024/04/16 03:32:03;;;;;;;2.20;1.00;;;;;;;;;;769500;179;618092;-75
2024/04/16 03:34:29;;;;;;;3.80;1.00;;;;;;;;;;765381;180;666579;-74
2024/04/16 03:36:55;;;;;;;3.60;1.27;;;;;;;;;;767956;180;769388;-73
2024/04/16 03:39:20;;;;;;;2.70;1.03;;;;;;;;;;769582;180;920030;-73
2024/04/16 03:41:46;;;;;;;2.20;0.80;;;;;;;;;;769208;180;917900;-73
2024/04/16 03:44:12;;;;;;;2.20;1.00;;;;;;;;;;767338;180;710482;-73
2024/04/16 03:46:38;;;;;;;2.73;0.90;;;;;;;;;;774147;180;811705;-72
2024/04/16 03:49:04;;;;;;;2.30;1.00;;;;;;;;;;767100;180;815001;-73
2024/04/16 03:51:30;;;;;;;2.03;0.98;;;;;;;;;;769317;180;769228;-73
2024/04/16 03:53:56;;;;;;;2.10;0.80;;;;;;;;;;775427;180;614892;-73
2024/04/16 03:56:21;;;;;;;4.00;1.10;;;;;;;;;;768472;180;917274;-73
2024/04/16 04:01:19;;;;;;;2.20;0.90;;;;;;;;;;766845;180;722010;-73
2024/04/16 04:03:45;;;;;;;2.17;0.90;;;;;;;;;;771323;180;714649;-73
2024/04/16 04:06:11;;;;;;;5.33;1.00;;;;;;;;;;771062;180;618895;-73
2024/04/16 04:08:36;;;;;;;3.00;1.03;;;;;;;;;;767604;180;815157;-73
2024/04/16 04:11:02;;;;;;;2.67;0.97;;;;;;;;;;775039;180;633536;-73
2024/04/16 04:13:28;;;;;;;2.27;0.80;;;;;;;;;;774462;180;617246;-73
2024/04/16 04:15:56;;;;;;;2.80;1.00;;;;;;;;;;767044;180;635164;-73
2024/04/16 04:18:20;;;;;;;3.53;1.00;;;;;;;;;;771816;180;632387;-71
2024/04/16 04:20:47;;;;;;;6.40;1.00;;;;;;;;;;767175;180;637185;-72
2024/04/16 04:23:12;;;;;;;2.50;0.87;;;;;;;;;;771736;180;634106;-72
2024/04/16 04:25:37;;;;;;;3.77;1.10;;;;;;;;;;770905;180;637336;-72
2024/04/16 04:28:03;;;;;;;2.50;1.20;;;;;;;;;;767182;181;625999;-72
2024/04/16 04:30:30;;;;;;;2.10;0.90;;;;;;;;;;769853;180;798727;-71
2024/04/16 04:32:55;;;;;;;2.67;1.00;;;;;;;;;;775170;180;617589;-72
2024/04/16 04:35:21;;;;;;;3.50;0.90;;;;;;;;;;777447;180;616148;-72
2024/04/16 04:37:47;;;;;;;2.63;1.00;;;;;;;;;;771819;180;632618;-72
2024/04/16 04:40:12;;;;;;;2.80;1.00;;;;;;;;;;772724;180;695714;-72
2024/04/16 04:42:38;;;;;;;2.55;0.88;;;;;;;;;;777403;179;716517;-72
2024/04/16 04:45:04;;;;;;;2.30;0.90;;;;;;;;;;772226;180;803447;-72
2024/04/16 04:47:30;;;;;;;5.20;0.90;;;;;;;;;;769522;180;631280;-72
2024/04/16 04:49:56;;;;;;;4.83;1.23;;;;;;;;;;777977;180;623870;-72
2024/04/16 04:52:22;;;;;;;2.40;1.00;;;;;;;;;;773758;180;639020;-72
2024/04/16 04:54:48;;;;;;;2.90;1.10;;;;;;;;;;768154;180;813741;-72
2024/04/16 04:57:13;;;;;;;2.37;0.97;;;;;;;;;;767425;180;916688;-73
2024/04/16 04:59:39;;;;;;;4.00;1.33;;;;;;;;;;770212;179;720909;-73
2024/04/16 05:02:09;;;;;;;2.60;1.50;;;;;;;;;;768747;180;635603;-73
2024/04/16 05:04:31;;;;;;;7.77;1.50;;;;;;;;;;767270;179;803246;-72
2024/04/16 05:06:57;;;;;;;2.43;1.03;;;;;;;;;;772028;180;816246;-71
2024/04/16 05:09:23;;;;;;;2.20;1.00;;;;;;;;;;772281;180;919748;-72
2024/04/16 05:11:49;;;;;;;2.42;0.90;;;;;;;;;;766586;180;837195;-72
2024/04/16 05:14:15;;;;;;;3.80;1.10;;;;;;;;;;775086;180;710763;-72
2024/04/16 05:16:40;;;;;;;2.50;0.90;;;;;;;;;;769426;179;722129;-72
2024/04/16 05:19:06;;;;;;;4.03;1.10;;;;;;;;;;765622;180;914346;-72
2024/04/16 05:21:32;;;;;;;4.83;1.07;;;;;;;;;;774395;180;713827;-72
2024/04/16 05:23:58;;;;;;;2.07;0.97;;;;;;;;;;767189;180;921876;-72
2024/04/16 05:26:23;;;;;;;3.50;0.90;;;;;;;;;;770006;180;713947;-72
2024/04/16 05:28:49;;;;;;;7.17;1.30;;;;;;;;;;763517;180;1736012;-70
2024/04/16 05:31:15;;;;;;;2.20;1.00;;;;;;;;;;756452;182;716463;-72
2024/04/16 05:33:41;;;;;;;4.20;1.20;;;;;;;;;;766234;179;919750;-72
2024/04/16 05:36:07;;;;;;;3.00;1.20;;;;;;;;;;765202;180;683477;-73
2024/04/16 05:38:33;;;;;;;2.63;1.00;;;;;;;;;;766672;180;713438;-71
2024/04/16 05:40:59;;;;;;;2.30;1.10;;;;;;;;;;773362;178;848771;-71
2024/04/16 05:43:24;;;;;;;3.07;1.17;;;;;;;;;;772311;180;706247;-72
2024/04/16 05:45:50;;;;;;;3.57;1.10;;;;;;;;;;777508;179;698105;-72
2024/04/16 05:48:16;;;;;;;2.90;1.23;;;;;;;;;;772421;180;615027;-72
2024/04/16 05:50:42;;;;;;;2.43;1.03;;;;;;;;;;768047;180;797232;-71
2024/04/16 05:53:08;;;;;;;2.20;1.07;;;;;;;;;;769704;180;919215;-71
2024/04/16 05:55:34;;;;;;;2.83;1.20;;;;;;;;;;767159;179;668418;-70
2024/04/16 05:58:00;;;;;;;3.80;1.20;;;;;;;;;;767385;180;706520;-71
2024/04/16 06:00:25;;;;;;;3.60;1.08;;;;;;;;;;763730;179;919082;-69
2024/04/16 06:02:51;;;;;;;4.80;1.50;;;;;;;;;;766056;180;863194;-72
2024/04/16 06:05:17;;;;;;;2.73;1.20;;;;;;;;;;767745;180;693992;-72
2024/04/16 06:07:43;;;;;;;2.20;1.00;;;;;;;;;;769931;180;712233;-73
2024/04/16 06:10:09;;;;;;;2.33;1.13;;;;;;;;;;775547;179;688203;-72
2024/04/16 06:12:35;;;;;;;2.17;1.03;;;;;;;;;;759690;180;815990;-71
2024/04/16 06:15:00;;;;;;;2.60;1.33;;;;;;;;;;771152;180;753571;-72
2024/04/16 06:17:26;;;;;;;3.20;1.10;;;;;;;;;;771904;180;798907;-71
2024/04/16 06:19:52;;;;;;;2.53;1.00;;;;;;;;;;770262;180;635967;-71
2024/04/16 06:22:18;;;;;;;2.80;1.20;;;;;;;;;;771110;180;709339;-69
2024/04/16 06:24:44;;;;;;;2.57;1.10;;;;;;;;;;771642;180;792186;-69
2024/04/16 06:27:10;;;;;;;3.10;1.00;;;;;;;;;;770268;180;716912;-70
2024/04/16 06:29:37;;;;;;;2.30;1.00;;;;;;;;;;768722;180;749793;-69
2024/04/16 06:32:01;;;;;;;3.10;1.30;;;;;;;;;;771643;180;686765;-71
2024/04/16 06:34:27;;;;;;;3.27;1.00;;;;;;;;;;776259;180;654445;-70
2024/04/16 06:36:53;;;;;;;4.80;1.10;;;;;;;;;;768886;180;801665;-70
2024/04/16 06:39:19;;;;;;;3.47;1.17;;;;;;;;;;767986;180;919059;-71
2024/04/16 06:41:45;;;;;;;3.80;1.30;;;;;;;;;;770968;180;666032;-70
2024/04/16 06:44:10;;;;;;;2.97;1.20;;;;;;;;;;769986;180;820970;-70
2024/04/16 06:46:36;;;;;;;3.60;1.40;;;;;;;;;;770541;180;843485;-69
2024/04/16 06:49:02;;;;;;;3.90;1.30;;;;;;;;;;768506;180;731319;-69
2024/04/16 06:51:28;;;;;;;2.20;1.10;;;;;;;;;;773314;179;707220;-70
2024/04/16 06:53:54;;;;;;;3.30;1.43;;;;;;;;;;769320;180;795128;-70
2024/04/16 06:56:20;;;;;;;2.20;1.13;;;;;;;;;;775456;180;812218;-70
2024/04/16 06:58:45;;;;;;;2.93;1.30;;;;;;;;;;767021;180;916607;-70
2024/04/16 07:01:11;;;;;;;2.17;1.00;;;;;;;;;;766899;180;790985;-70
2024/04/16 07:03:37;;;;;;;4.73;1.10;;;;;;;;;;766237;180;813770;-71
2024/04/16 07:06:03;;;;;;;5.97;1.20;;;;;;;;;;764237;182;832247;-70
2024/04/16 07:08:29;;;;;;;2.73;1.37;;;;;;;;;;764462;180;709557;-69
2024/04/16 07:10:55;;;;;;;4.67;1.20;;;;;;;;;;768885;180;710680;-70
2024/04/16 07:13:21;;;;;;;2.60;1.20;;;;;;;;;;772310;179;816213;-70
2024/04/16 07:15:46;;;;;;;2.95;1.00;;;;;;;;;;768257;180;734106;-69
2024/04/16 07:18:12;;;;;;;2.53;1.17;;;;;;;;;;765637;180;720487;-70
2024/04/16 07:20:38;;;;;;;2.17;0.90;;;;;;;;;;772888;180;750357;-70
2024/04/16 07:23:04;;;;;;;3.22;1.10;;;;;;;;;;770533;180;800546;-70
2024/04/16 07:25:30;;;;;;;2.50;1.10;;;;;;;;;;767424;180;917230;-70
2024/04/16 07:27:56;;;;;;;2.60;1.20;;;;;;;;;;772008;180;815988;-70
2024/04/16 07:30:21;;;;;;;3.10;1.03;;;;;;;;;;768830;180;713861;-69
2024/04/16 07:32:47;;;;;;;3.23;1.10;;;;;;;;;;765478;180;916055;-70
2024/04/16 07:35:13;;;;;;;2.90;1.20;;;;;;;;;;765146;180;813988;-71
2024/04/16 07:37:39;;;;;;;3.53;1.00;;;;;;;;;;763899;181;657546;-69
2024/04/16 07:40:05;;;;;;;2.93;1.10;;;;;;;;;;766324;180;813287;-69
2024/04/16 07:42:31;;;;;;;2.83;1.20;;;;;;;;;;764171;180;918625;-71
2024/04/16 07:44:57;;;;;;;2.93;1.00;;;;;;;;;;774797;180;810131;-69
2024/04/16 07:47:23;;;;;;;2.43;1.00;;;;;;;;;;770998;180;830165;-70
2024/04/16 07:49:49;;;;;;;3.70;1.17;;;;;;;;;;767911;180;721485;-70
2024/04/16 07:52:14;;;;;;;3.00;1.20;;;;;;;;;;771060;180;918673;-70
2024/04/16 07:54:40;;;;;;;4.77;1.10;;;;;;;;;;768836;180;774975;-71
2024/04/16 07:57:06;;;;;;;4.47;1.10;;;;;;;;;;769912;180;796007;-69
2024/04/16 07:59:32;;;;;;;2.00;0.93;;;;;;;;;;773308;180;865267;-70
2024/04/16 08:01:58;;;;;;;2.10;1.00;;;;;;;;;;765295;181;801329;-70
2024/04/16 08:09:51;;;;;;;4.07;1.33;;;;;;;;;;781883;173;814520;-70
2024/04/16 08:12:17;;;;;;;3.67;1.23;;;;;;;;;;770937;178;713559;-70
2024/04/16 08:14:43;;;;;;;5.33;1.40;;;;;;;;;;782506;178;801831;-70
2024/04/16 08:17:08;;;;;;;3.50;1.03;;;;;;;;;;773394;179;684504;-68
2024/04/16 08:19:34;;;;;;;2.87;1.13;;;;;;;;;;776112;179;914507;-69
2024/04/16 08:22:00;;;;;;;2.40;1.10;;;;;;;;;;773123;179;920773;-69
2024/04/16 08:24:26;;;;;;;5.70;1.50;;;;;;;;;;776742;179;771616;-68
2024/04/16 08:26:52;;;;;;;2.20;0.90;;;;;;;;;;778009;179;694077;-68
2024/04/16 08:29:18;;;;;;;3.03;1.20;;;;;;;;;;780730;179;808347;-70
2024/04/16 08:31:44;;;;;;;2.77;1.23;;;;;;;;;;771623;179;915909;-70
2024/04/16 08:34:09;;;;;;;8.65;1.40;;;;;;;;;;775331;179;858341;-69
2024/04/16 08:36:35;;;;;;;3.00;1.60;;;;;;;;;;774232;179;829417;-69
2024/04/16 08:39:01;;;;;;;2.70;1.13;;;;;;;;;;774861;179;713404;-70
2024/04/16 08:41:27;;;;;;;3.70;1.30;;;;;;;;;;774746;179;705562;-70
2024/04/16 08:43:53;;;;;;;5.37;2.00;;;;;;;;;;773298;179;862686;-70
2024/04/16 08:46:19;;;;;;;2.50;1.20;;;;;;;;;;780623;179;816362;-69
2024/04/16 08:48:45;;;;;;;2.67;1.10;;;;;;;;;;775610;179;925540;-69
2024/04/16 08:51:11;;;;;;;2.30;1.00;;;;;;;;;;772317;179;823457;-70
2024/04/16 08:53:36;;;;;;;2.30;1.10;;;;;;;;;;778379;179;814187;-69
2024/04/16 08:56:03;;;;;;;6.23;1.50;;;;;;;;;;777459;179;814472;-69
2024/04/16 08:58:28;;;;;;;3.30;1.17;;;;;;;;;;777032;179;744094;-70
2024/04/16 09:00:55;;;;;;;5.70;1.30;;;;;;;;;;779557;179;839624;-70
2024/04/16 09:03:20;;;;;;;3.20;1.03;;;;;;;;;;773215;179;780218;-70
2024/04/16 09:05:46;;;;;;;4.45;1.62;;;;;;;;;;774503;179;693284;-71
2024/04/16 09:08:11;;;;;;;3.20;1.60;;;;;;;;;;777110;179;936726;-71
2024/04/16 09:10:39;;;;;;;4.43;1.47;;;;;;;;;;773708;179;916383;-70
2024/04/16 09:13:08;;;;;;;2.60;1.30;;;;;;;;;;770499;179;919701;-69
2024/04/16 09:15:37;;;;;;;2.60;1.10;;;;;;;;;;776366;179;771188;-70
2024/04/16 09:18:00;;;;;;;4.53;1.37;;;;;;;;;;782359;179;630453;-69
2024/04/16 09:20:26;;;;;;;3.80;1.70;;;;;;;;;;776587;179;798714;-70
2024/04/16 09:22:51;;;;;;;3.07;1.20;;;;;;;;;;780428;179;704120;-69
2024/04/16 09:25:17;;;;;;;3.43;1.33;;;;;;;;;;778035;179;713917;-70
2024/04/16 09:27:45;;;;;;;3.30;1.10;;;;;;;;;;775143;180;918636;-70
2024/04/16 09:30:11;;;;;;;2.40;1.23;;;;;;;;;;773630;179;629256;-69
2024/04/16 09:32:37;;;;;;;4.13;1.47;;;;;;;;;;774964;178;682016;-70
2024/04/16 09:35:03;;;;;;;7.00;1.57;;;;;;;;;;781824;178;793760;-70
2024/04/16 09:37:29;;;;;;;3.43;1.30;;;;;;;;;;774718;179;918604;-71
2024/04/16 09:39:55;;;;;;;3.93;1.43;;;;;;;;;;773151;179;724203;-70
2024/04/16 09:42:21;;;;;;;2.53;1.27;;;;;;;;;;778996;179;710044;-71
2024/04/16 09:44:47;;;;;;;3.73;1.40;;;;;;;;;;776377;179;815881;-71
2024/04/16 09:47:13;;;;;;;2.23;1.20;;;;;;;;;;775762;179;923199;-71
2024/04/16 09:49:39;;;;;;;3.80;1.60;;;;;;;;;;777852;179;809597;-71
2024/04/16 09:52:05;;;;;;;3.03;1.40;;;;;;;;;;773261;179;916337;-70
2024/04/16 09:54:31;;;;;;;3.83;1.50;;;;;;;;;;774116;179;797147;-71
2024/04/16 09:56:56;;;;;;;7.33;1.67;;;;;;;;;;780412;179;713650;-70
2024/04/16 09:59:22;;;;;;;2.87;1.50;;;;;;;;;;769094;179;913631;-70
2024/04/16 10:01:48;;;;;;;3.05;1.42;;;;;;;;;;774641;179;858471;-71
2024/04/16 10:04:14;;;;;;;3.70;1.50;;;;;;;;;;774648;179;714883;-71
2024/04/16 10:06:41;;;;;;;7.20;1.83;;;;;;;;;;775356;179;691013;-71
2024/04/16 10:09:06;;;;;;;5.33;1.90;;;;;;;;;;775009;179;906125;-71
2024/04/16 10:11:31;;;;;;;3.70;1.60;;;;;;;;;;772379;179;953095;-68
2024/04/16 10:13:57;;;;;;;3.90;1.40;;;;;;;;;;776792;177;796069;-69
2024/04/16 10:16:23;;;;;;;6.80;1.90;;;;;;;;;;775630;179;753062;-70
2024/04/16 10:18:54;;;;;;;3.33;1.50;;;;;;;;;;773378;180;709640;-69
2024/04/16 10:21:23;;;;;;;3.80;1.50;;;;;;;;;;775317;179;790429;-69
2024/04/16 10:23:49;;;;;;;5.50;1.80;;;;;;;;;;771696;180;698558;-70
2024/04/16 10:26:16;;;;;;;4.03;1.60;;;;;;;;;;772932;179;813060;-70
2024/04/16 10:28:42;;;;;;;5.20;1.70;;;;;;;;;;777722;179;663269;-69
2024/04/16 10:31:06;;;;;;;4.10;1.70;;;;;;;;;;779624;179;826814;-70
2024/04/16 10:33:32;;;;;;;3.60;1.40;;;;;;;;;;779404;178;643542;-70
2024/04/16 10:35:58;;;;;;;3.77;1.80;;;;;;;;;;776633;179;753365;-69
2024/04/16 10:38:24;;;;;;;3.97;1.80;;;;;;;;;;779864;178;721257;-71
2024/04/16 10:40:54;;;;;;;3.17;1.63;;;;;;;;;;773383;179;867663;-72
2024/04/16 10:43:23;;;;;;;6.93;1.85;;;;;;;;;;777511;179;693043;-73
2024/04/16 10:45:48;;;;;;;2.87;1.57;;;;;;;;;;777260;179;700191;-74
2024/04/16 10:48:14;;;;;;;5.97;2.00;;;;;;;;;;775340;179;918917;-74
2024/04/16 10:50:40;;;;;;;9.73;2.10;;;;;;;;;;773045;180;916290;-74
2024/04/16 10:53:14;;;;;;;3.73;1.40;;;;;;;;;;775296;178;804570;-74
2024/04/16 10:55:39;;;;;;;5.23;1.90;;;;;;;;;;779217;179;619221;-73
2024/04/16 10:58:05;;;;;;;5.30;1.77;;;;;;;;;;777298;179;728751;-73
2024/04/16 11:00:31;;;;;;;2.80;1.87;;;;;;;;;;778015;179;767626;-74
2024/04/16 11:02:59;;;;;;;3.67;1.70;;;;;;;;;;774502;178;919043;-74
2024/04/16 11:05:25;;;;;;;8.23;1.73;;;;;;;;;;775534;180;700303;-74
2024/04/16 11:07:51;;;;;;;6.17;2.37;;;;;;;;;;775280;179;687221;-73
2024/04/16 11:10:16;;;;;;;4.90;1.93;;;;;;;;;;773787;179;808398;-72
2024/04/16 11:12:42;;;;;;;4.10;1.53;;;;;;;;;;780761;179;854262;-72
2024/04/16 11:15:08;;;;;;;2.90;1.40;;;;;;;;;;773623;179;869565;-70
2024/04/16 11:17:34;;;;;;;6.03;2.00;;;;;;;;;;772275;180;629303;-70
2024/04/16 11:20:00;;;;;;;4.83;1.40;;;;;;;;;;780820;179;802457;-70
2024/04/16 11:22:26;;;;;;;2.60;1.30;;;;;;;;;;773016;179;901914;-71
2024/04/16 11:24:51;;;;;;;4.50;1.77;;;;;;;;;;775623;178;734361;-71
2024/04/16 11:27:17;;;;;;;4.40;1.80;;;;;;;;;;779041;179;662445;-71
2024/04/16 11:29:45;;;;;;;3.80;1.77;;;;;;;;;;774424;179;906910;-70
2024/04/16 11:32:11;;;;;;;3.27;1.60;;;;;;;;;;771998;178;816245;-71
2024/04/16 11:34:36;;;;;;;3.83;1.40;;;;;;;;;;772826;179;817672;-71
2024/04/16 11:37:02;;;;;;;2.97;1.40;;;;;;;;;;779741;179;720582;-70
2024/04/16 11:39:28;;;;;;;4.10;1.75;;;;;;;;;;773878;179;814129;-71
2024/04/16 11:41:54;;;;;;;3.63;1.60;;;;;;;;;;772595;179;814165;-70
2024/04/16 11:44:20;;;;;;;4.97;1.80;;;;;;;;;;783840;179;882906;-72
2024/04/16 11:46:46;;;;;;;6.73;1.43;;;;;;;;;;778721;179;665628;-73
2024/04/16 11:49:12;;;;;;;5.93;1.70;;;;;;;;;;779026;179;638370;-73
2024/04/16 11:51:37;;;;;;;4.20;1.50;;;;;;;;;;780505;179;821652;-72
2024/04/16 11:54:03;;;;;;;2.63;1.43;;;;;;;;;;771185;180;919024;-72
2024/04/16 11:56:29;;;;;;;3.90;1.70;;;;;;;;;;774882;179;800651;-72
2024/04/16 11:58:55;;;;;;;4.27;2.00;;;;;;;;;;777912;179;911675;-72
2024/04/16 12:01:21;;;;;;;4.77;1.20;;;;;;;;;;774150;179;724818;-72
2024/04/16 12:03:47;;;;;;;5.53;1.87;;;;;;;;;;772635;179;917172;-72
2024/04/16 12:06:12;;;;;;;6.53;1.73;;;;;;;;;;778217;178;774516;-73
2024/04/16 12:08:38;;;;;;;4.90;1.70;;;;;;;;;;775948;178;615931;-72
2024/04/16 12:11:04;;;;;;;4.47;1.93;;;;;;;;;;778911;178;712221;-72
2024/04/16 12:13:30;;;;;;;5.70;1.30;;;;;;;;;;776988;178;662769;-72
2024/04/16 12:15:56;;;;;;;2.90;1.20;;;;;;;;;;778087;179;918115;-73
2024/04/16 12:18:22;;;;;;;3.17;1.47;;;;;;;;;;772718;179;916216;-73
2024/04/16 12:20:47;;;;;;;3.37;1.53;;;;;;;;;;777782;179;813132;-73
2024/04/16 12:23:13;;;;;;;5.33;1.60;;;;;;;;;;779733;180;766000;-73
2024/04/16 12:25:39;;;;;;;3.93;1.40;;;;;;;;;;776497;177;713230;-73
2024/04/16 12:28:05;;;;;;;3.80;1.58;;;;;;;;;;771786;179;920405;-73
2024/04/16 12:30:31;;;;;;;5.43;1.53;;;;;;;;;;775702;177;909650;-72
2024/04/16 12:32:57;;;;;;;3.27;1.30;;;;;;;;;;773289;178;918442;-72
2024/04/16 12:35:23;;;;;;;2.25;1.10;;;;;;;;;;775560;179;716388;-72
2024/04/16 12:37:48;;;;;;;3.13;1.40;;;;;;;;;;772870;179;916745;-73
2024/04/16 12:40:16;;;;;;;6.00;1.30;;;;;;;;;;759745;181;913752;-72
2024/04/16 12:42:40;;;;;;;2.80;1.30;;;;;;;;;;766230;180;912535;-72
2024/04/16 12:45:06;;;;;;;2.60;1.20;;;;;;;;;;773911;180;696582;-72
2024/04/16 12:47:32;;;;;;;4.50;1.50;;;;;;;;;;780578;179;673146;-72
2024/04/16 12:49:58;;;;;;;3.17;1.27;;;;;;;;;;769983;180;814129;-72
2024/04/16 12:52:24;;;;;;;5.87;1.43;;;;;;;;;;775199;179;635004;-72
2024/04/16 12:54:50;;;;;;;3.50;1.37;;;;;;;;;;780857;178;623559;-72
2024/04/16 12:57:15;;;;;;;8.03;2.60;;;;;;;;;;778458;179;807459;-72
2024/04/16 12:59:41;;;;;;;2.63;1.30;;;;;;;;;;777948;178;717709;-73
2024/04/16 13:02:07;;;;;;;3.00;1.80;;;;;;;;;;781034;179;657402;-71
2024/04/16 13:04:33;;;;;;;2.67;1.60;;;;;;;;;;776461;178;716415;-71
2024/04/16 13:06:59;;;;;;;7.30;1.60;;;;;;;;;;774628;180;815792;-72
2024/04/16 13:09:25;;;;;;;2.83;1.23;;;;;;;;;;780465;179;644685;-72
2024/04/16 13:11:51;;;;;;;2.47;1.20;;;;;;;;;;778367;178;670851;-73
2024/04/16 13:14:17;;;;;;;3.30;1.63;;;;;;;;;;777801;177;790069;-72
2024/04/16 13:16:43;;;;;;;4.50;2.40;;;;;;;;;;773594;179;811249;-72
2024/04/16 13:19:09;;;;;;;3.53;1.63;;;;;;;;;;782969;179;635597;-71
2024/04/16 13:21:34;;;;;;;3.23;1.57;;;;;;;;;;777159;180;727769;-72
2024/04/16 13:24:00;;;;;;;3.20;1.50;;;;;;;;;;772237;178;773722;-72
2024/04/16 13:26:26;;;;;;;4.87;1.60;;;;;;;;;;779531;178;815063;-72
2024/04/16 13:28:53;;;;;;;3.17;1.47;;;;;;;;;;776266;179;744963;-72
2024/04/16 13:31:19;;;;;;;2.67;1.60;;;;;;;;;;773102;180;731241;-72
2024/04/16 13:33:44;;;;;;;4.40;2.33;;;;;;;;;;777699;179;892624;-72
2024/04/16 13:36:10;;;;;;;2.80;1.60;;;;;;;;;;771770;179;918890;-72
2024/04/16 13:38:36;;;;;;;2.83;1.30;;;;;;;;;;777821;179;633941;-72
2024/04/16 13:41:05;;;;;;;4.62;1.67;;;;;;;;;;772972;179;804072;-73
2024/04/16 13:43:28;;;;;;;2.97;1.17;;;;;;;;;;774768;179;815485;-71
2024/04/16 13:45:54;;;;;;;2.80;1.47;;;;;;;;;;774907;179;815747;-72
2024/04/16 13:48:20;;;;;;;2.60;1.50;;;;;;;;;;777232;179;697171;-71
2024/04/16 13:50:46;;;;;;;3.13;1.10;;;;;;;;;;779983;180;697475;-69
2024/04/16 13:53:11;;;;;;;2.50;1.37;;;;;;;;;;778756;179;780024;-70
2024/04/16 13:55:37;;;;;;;8.57;1.70;;;;;;;;;;772699;179;781750;-69
2024/04/16 13:58:03;;;;;;;2.93;1.30;;;;;;;;;;781214;178;619742;-70
2024/04/16 14:00:29;;;;;;;5.30;1.47;;;;;;;;;;776408;179;813412;-70
2024/04/16 14:02:55;;;;;;;3.33;1.07;;;;;;;;;;774971;179;917941;-70
2024/04/16 14:05:21;;;;;;;4.43;1.30;;;;;;;;;;776925;177;915144;-71
2024/04/16 14:07:47;;;;;;;3.83;1.47;;;;;;;;;;776372;177;917788;-70
2024/04/16 14:10:12;;;;;;;5.97;1.30;;;;;;;;;;777128;179;746479;-69
2024/04/16 14:12:38;;;;;;;2.30;1.23;;;;;;;;;;779334;179;712001;-70
2024/04/16 14:15:05;;;;;;;5.53;1.30;;;;;;;;;;779826;178;717033;-70
2024/04/16 14:17:30;;;;;;;4.37;1.20;;;;;;;;;;773746;180;703879;-71
2024/04/16 14:19:56;;;;;;;3.30;1.30;;;;;;;;;;771386;180;734861;-70
2024/04/16 14:22:23;;;;;;;5.63;1.40;;;;;;;;;;776474;179;779091;-70
2024/04/16 14:24:49;;;;;;;3.53;1.20;;;;;;;;;;776285;179;712033;-71
2024/04/16 14:27:14;;;;;;;9.03;1.50;;;;;;;;;;775809;179;615473;-70
2024/04/16 14:29:39;;;;;;;5.40;1.80;;;;;;;;;;776379;179;917801;-70
2024/04/16 14:32:06;;;;;;;5.10;1.40;;;;;;;;;;772858;178;917893;-70